sensor_id;sensor_type;location;lat;lon;timestamp;P1;durP1;ratioP1;P2;durP2;ratioP2
3000;SDS011;1510;51.072;6.678;2023-03-12T00:00:33;15.27;;;7.40;;
3000;SDS011;1510;51.072;6.678;2023-03-12T00:03:00;11.10;;;6.17;;
3000;SDS011;1510;51.072;6.678;2023-03-12T00:05:26;11.00;;;7.13;;
3000;SDS011;1510;51.072;6.678;2023-03-12T00:07:53;18.13;;;6.50;;
3000;SDS011;1510;51.072;6.678;2023-03-12T00:10:23;10.33;;;6.70;;
3000;SDS011;1510;51.072;6.678;2023-03-12T00:12:52;8.87;;;5.43;;
3000;SDS011;1510;51.072;6.678;2023-03-12T00:15:19;13.40;;;6.87;;
3000;SDS011;1510;51.072;6.678;2023-03-12T00:17:46;11.63;;;6.07;;
3000;SDS011;1510;51.072;6.678;2023-03-12T00:20:13;17.23;;;7.83;;
3000;SDS011;1510;51.072;6.678;2023-03-12T00:22:40;12.87;;;7.80;;
3000;SDS011;1510;51.072;6.678;2023-03-12T00:25:10;12.43;;;6.70;;
3000;SDS011;1510;51.072;6.678;2023-03-12T00:27:38;11.23;;;7.40;;
3000;SDS011;1510;51.072;6.678;2023-03-12T00:30:07;10.73;;;8.20;;
3000;SDS011;1510;51.072;6.678;2023-03-12T00:32:35;11.80;;;7.50;;
3000;SDS011;1510;51.072;6.678;2023-03-12T00:35:04;13.30;;;7.67;;
3000;SDS011;1510;51.072;6.678;2023-03-12T00:37:32;15.90;;;9.00;;
3000;SDS011;1510;51.072;6.678;2023-03-12T00:39:59;11.30;;;7.07;;
3000;SDS011;1510;51.072;6.678;2023-03-12T00:42:29;8.93;;;7.33;;
3000;SDS011;1510;51.072;6.678;2023-03-12T00:44:56;17.60;;;7.30;;
3000;SDS011;1510;51.072;6.678;2023-03-12T00:47:24;21.03;;;7.83;;
3000;SDS011;1510;51.072;6.678;2023-03-12T00:49:51;14.70;;;7.40;;
3000;SDS011;1510;51.072;6.678;2023-03-12T00:52:18;12.90;;;7.70;;
3000;SDS011;1510;51.072;6.678;2023-03-12T00:54:45;14.33;;;8.43;;
3000;SDS011;1510;51.072;6.678;2023-03-12T00:57:11;13.83;;;8.03;;
3000;SDS011;1510;51.072;6.678;2023-03-12T00:59:38;15.67;;;8.67;;
3000;SDS011;1510;51.072;6.678;2023-03-12T01:02:06;15.03;;;8.67;;
3000;SDS011;1510;51.072;6.678;2023-03-12T01:04:35;14.27;;;8.00;;
3000;SDS011;1510;51.072;6.678;2023-03-12T01:07:02;10.00;;;7.00;;
3000;SDS011;1510;51.072;6.678;2023-03-12T01:09:29;12.73;;;7.87;;
3000;SDS011;1510;51.072;6.678;2023-03-12T01:11:57;12.43;;;7.40;;
3000;SDS011;1510;51.072;6.678;2023-03-12T01:14:24;11.37;;;8.57;;
3000;SDS011;1510;51.072;6.678;2023-03-12T01:16:51;14.97;;;8.20;;
3000;SDS011;1510;51.072;6.678;2023-03-12T01:19:18;12.90;;;8.83;;
3000;SDS011;1510;51.072;6.678;2023-03-12T01:21:46;18.83;;;9.10;;
3000;SDS011;1510;51.072;6.678;2023-03-12T01:24:13;13.97;;;7.60;;
3000;SDS011;1510;51.072;6.678;2023-03-12T01:26:40;16.40;;;7.57;;
3000;SDS011;1510;51.072;6.678;2023-03-12T01:29:10;11.00;;;7.50;;
3000;SDS011;1510;51.072;6.678;2023-03-12T01:31:37;19.67;;;9.03;;
3000;SDS011;1510;51.072;6.678;2023-03-12T01:34:03;14.07;;;9.03;;
3000;SDS011;1510;51.072;6.678;2023-03-12T01:36:30;15.73;;;8.63;;
3000;SDS011;1510;51.072;6.678;2023-03-12T01:38:58;16.70;;;9.43;;
3000;SDS011;1510;51.072;6.678;2023-03-12T01:41:26;13.70;;;7.90;;
3000;SDS011;1510;51.072;6.678;2023-03-12T01:43:56;12.67;;;9.13;;
3000;SDS011;1510;51.072;6.678;2023-03-12T01:46:27;12.80;;;9.00;;
3000;SDS011;1510;51.072;6.678;2023-03-12T01:48:56;12.57;;;9.10;;
3000;SDS011;1510;51.072;6.678;2023-03-12T01:51:29;16.13;;;8.60;;
3000;SDS011;1510;51.072;6.678;2023-03-12T01:54:03;15.20;;;7.90;;
3000;SDS011;1510;51.072;6.678;2023-03-12T01:56:33;16.50;;;7.97;;
3000;SDS011;1510;51.072;6.678;2023-03-12T01:59:02;15.37;;;6.73;;
3000;SDS011;1510;51.072;6.678;2023-03-12T02:01:32;11.93;;;6.87;;
3000;SDS011;1510;51.072;6.678;2023-03-12T02:03:59;9.97;;;7.30;;
3000;SDS011;1510;51.072;6.678;2023-03-12T02:06:28;12.57;;;7.03;;
3000;SDS011;1510;51.072;6.678;2023-03-12T02:11:31;9.07;;;6.10;;
3000;SDS011;1510;51.072;6.678;2023-03-12T02:13:58;9.57;;;6.27;;
3000;SDS011;1510;51.072;6.678;2023-03-12T02:16:25;12.67;;;7.27;;
3000;SDS011;1510;51.072;6.678;2023-03-12T02:18:53;12.00;;;5.90;;
3000;SDS011;1510;51.072;6.678;2023-03-12T02:21:22;12.20;;;5.27;;
3000;SDS011;1510;51.072;6.678;2023-03-12T02:23:54;8.93;;;5.80;;
3000;SDS011;1510;51.072;6.678;2023-03-12T02:26:27;12.60;;;6.27;;
3000;SDS011;1510;51.072;6.678;2023-03-12T02:28:55;8.63;;;5.27;;
3000;SDS011;1510;51.072;6.678;2023-03-12T02:36:36;7.80;;;5.40;;
3000;SDS011;1510;51.072;6.678;2023-03-12T02:39:03;8.93;;;5.97;;
3000;SDS011;1510;51.072;6.678;2023-03-12T02:41:33;9.13;;;5.43;;
3000;SDS011;1510;51.072;6.678;2023-03-12T02:44:03;11.33;;;5.30;;
3000;SDS011;1510;51.072;6.678;2023-03-12T02:46:33;8.40;;;5.30;;
3000;SDS011;1510;51.072;6.678;2023-03-12T02:49:03;11.13;;;5.63;;
3000;SDS011;1510;51.072;6.678;2023-03-12T02:51:30;11.23;;;5.93;;
3000;SDS011;1510;51.072;6.678;2023-03-12T02:53:57;10.23;;;5.23;;
3000;SDS011;1510;51.072;6.678;2023-03-12T02:56:25;11.80;;;5.73;;
3000;SDS011;1510;51.072;6.678;2023-03-12T02:58:54;12.80;;;5.77;;
3000;SDS011;1510;51.072;6.678;2023-03-12T03:01:21;12.53;;;5.57;;
3000;SDS011;1510;51.072;6.678;2023-03-12T03:03:48;8.23;;;5.40;;
3000;SDS011;1510;51.072;6.678;2023-03-12T03:06:15;8.93;;;6.00;;
3000;SDS011;1510;51.072;6.678;2023-03-12T03:08:42;7.50;;;4.77;;
3000;SDS011;1510;51.072;6.678;2023-03-12T03:11:09;8.70;;;4.97;;
3000;SDS011;1510;51.072;6.678;2023-03-12T03:13:37;10.70;;;4.57;;
3000;SDS011;1510;51.072;6.678;2023-03-12T03:16:06;11.27;;;5.23;;
3000;SDS011;1510;51.072;6.678;2023-03-12T03:18:33;12.37;;;4.80;;
3000;SDS011;1510;51.072;6.678;2023-03-12T03:21:01;13.47;;;5.07;;
3000;SDS011;1510;51.072;6.678;2023-03-12T03:23:29;10.40;;;5.37;;
3000;SDS011;1510;51.072;6.678;2023-03-12T03:25:57;9.97;;;4.20;;
3000;SDS011;1510;51.072;6.678;2023-03-12T03:28:25;9.73;;;4.97;;
3000;SDS011;1510;51.072;6.678;2023-03-12T03:30:53;6.33;;;3.67;;
3000;SDS011;1510;51.072;6.678;2023-03-12T03:33:26;9.57;;;5.90;;
3000;SDS011;1510;51.072;6.678;2023-03-12T03:35:53;8.37;;;4.70;;
3000;SDS011;1510;51.072;6.678;2023-03-12T03:38:21;9.77;;;5.87;;
3000;SDS011;1510;51.072;6.678;2023-03-12T03:40:48;15.93;;;4.80;;
3000;SDS011;1510;51.072;6.678;2023-03-12T03:43:16;12.70;;;5.20;;
3000;SDS011;1510;51.072;6.678;2023-03-12T03:45:43;7.17;;;4.70;;
3000;SDS011;1510;51.072;6.678;2023-03-12T03:48:10;12.43;;;4.80;;
3000;SDS011;1510;51.072;6.678;2023-03-12T03:50:39;10.03;;;5.27;;
3000;SDS011;1510;51.072;6.678;2023-03-12T03:53:07;8.93;;;5.30;;
3000;SDS011;1510;51.072;6.678;2023-03-12T03:55:37;7.20;;;4.70;;
3000;SDS011;1510;51.072;6.678;2023-03-12T03:58:04;11.57;;;6.10;;
3000;SDS011;1510;51.072;6.678;2023-03-12T04:00:32;7.73;;;4.10;;
3000;SDS011;1510;51.072;6.678;2023-03-12T04:02:59;11.23;;;4.80;;
3000;SDS011;1510;51.072;6.678;2023-03-12T04:05:26;13.33;;;5.60;;
3000;SDS011;1510;51.072;6.678;2023-03-12T04:07:55;12.50;;;4.80;;
3000;SDS011;1510;51.072;6.678;2023-03-12T04:10:27;10.17;;;5.23;;
3000;SDS011;1510;51.072;6.678;2023-03-12T04:12:55;9.17;;;4.63;;
3000;SDS011;1510;51.072;6.678;2023-03-12T04:15:24;14.60;;;5.03;;
3000;SDS011;1510;51.072;6.678;2023-03-12T04:17:52;8.07;;;4.53;;
3000;SDS011;1510;51.072;6.678;2023-03-12T04:20:20;8.70;;;4.63;;
3000;SDS011;1510;51.072;6.678;2023-03-12T04:22:47;15.53;;;4.57;;
3000;SDS011;1510;51.072;6.678;2023-03-12T04:25:15;7.37;;;4.30;;
3000;SDS011;1510;51.072;6.678;2023-03-12T04:27:42;5.90;;;3.60;;
3000;SDS011;1510;51.072;6.678;2023-03-12T04:30:10;7.70;;;4.50;;
3000;SDS011;1510;51.072;6.678;2023-03-12T04:32:37;7.60;;;4.50;;
3000;SDS011;1510;51.072;6.678;2023-03-12T04:35:04;8.67;;;4.97;;
3000;SDS011;1510;51.072;6.678;2023-03-12T04:37:31;8.37;;;4.30;;
3000;SDS011;1510;51.072;6.678;2023-03-12T04:39:59;7.63;;;4.40;;
3000;SDS011;1510;51.072;6.678;2023-03-12T04:42:28;6.80;;;4.10;;
3000;SDS011;1510;51.072;6.678;2023-03-12T04:44:55;7.13;;;3.97;;
3000;SDS011;1510;51.072;6.678;2023-03-12T04:47:22;8.10;;;4.03;;
3000;SDS011;1510;51.072;6.678;2023-03-12T04:49:49;10.50;;;4.60;;
3000;SDS011;1510;51.072;6.678;2023-03-12T04:52:16;7.50;;;3.50;;
3000;SDS011;1510;51.072;6.678;2023-03-12T04:54:43;5.90;;;4.23;;
3000;SDS011;1510;51.072;6.678;2023-03-12T04:57:11;13.07;;;4.17;;
3000;SDS011;1510;51.072;6.678;2023-03-12T04:59:39;9.63;;;5.07;;
3000;SDS011;1510;51.072;6.678;2023-03-12T05:02:07;8.30;;;4.33;;
3000;SDS011;1510;51.072;6.678;2023-03-12T05:04:33;17.20;;;7.33;;
3000;SDS011;1510;51.072;6.678;2023-03-12T05:07:01;9.30;;;4.90;;
3000;SDS011;1510;51.072;6.678;2023-03-12T05:09:28;12.47;;;5.20;;
3000;SDS011;1510;51.072;6.678;2023-03-12T05:11:55;9.20;;;4.80;;
3000;SDS011;1510;51.072;6.678;2023-03-12T05:14:22;11.87;;;5.33;;
3000;SDS011;1510;51.072;6.678;2023-03-12T05:16:51;7.50;;;5.97;;
3000;SDS011;1510;51.072;6.678;2023-03-12T05:19:18;10.90;;;5.40;;
3000;SDS011;1510;51.072;6.678;2023-03-12T05:21:45;8.47;;;6.53;;
3000;SDS011;1510;51.072;6.678;2023-03-12T05:24:11;8.23;;;7.47;;
3000;SDS011;1510;51.072;6.678;2023-03-12T05:26:38;8.87;;;8.07;;
3000;SDS011;1510;51.072;6.678;2023-03-12T05:29:06;10.57;;;8.73;;
3000;SDS011;1510;51.072;6.678;2023-03-12T05:31:33;12.30;;;11.03;;
3000;SDS011;1510;51.072;6.678;2023-03-12T05:34:02;12.20;;;11.17;;
3000;SDS011;1510;51.072;6.678;2023-03-12T05:36:30;12.63;;;11.33;;
3000;SDS011;1510;51.072;6.678;2023-03-12T05:38:57;14.93;;;13.87;;
3000;SDS011;1510;51.072;6.678;2023-03-12T05:41:27;15.47;;;13.93;;
3000;SDS011;1510;51.072;6.678;2023-03-12T05:43:55;19.27;;;17.57;;
3000;SDS011;1510;51.072;6.678;2023-03-12T05:46:23;28.17;;;26.23;;
3000;SDS011;1510;51.072;6.678;2023-03-12T05:48:51;69.83;;;66.53;;
3000;SDS011;1510;51.072;6.678;2023-03-12T05:51:20;86.23;;;82.77;;
3000;SDS011;1510;51.072;6.678;2023-03-12T05:53:47;117.20;;;112.43;;
3000;SDS011;1510;51.072;6.678;2023-03-12T05:56:15;165.23;;;159.03;;
3000;SDS011;1510;51.072;6.678;2023-03-12T05:58:42;179.20;;;172.00;;
3000;SDS011;1510;51.072;6.678;2023-03-12T06:01:10;202.93;;;195.03;;
3000;SDS011;1510;51.072;6.678;2023-03-12T06:03:37;196.80;;;187.83;;
3000;SDS011;1510;51.072;6.678;2023-03-12T06:06:04;230.27;;;220.77;;
3000;SDS011;1510;51.072;6.678;2023-03-12T06:08:32;204.00;;;196.10;;
3000;SDS011;1510;51.072;6.678;2023-03-12T06:10:59;215.47;;;206.77;;
3000;SDS011;1510;51.072;6.678;2023-03-12T06:13:26;151.57;;;145.87;;
3000;SDS011;1510;51.072;6.678;2023-03-12T06:15:53;216.23;;;207.43;;
3000;SDS011;1510;51.072;6.678;2023-03-12T06:18:20;191.37;;;183.30;;
3000;SDS011;1510;51.072;6.678;2023-03-12T06:45:00;89.97;;;86.03;;
3000;SDS011;1510;51.072;6.678;2023-03-12T06:47:28;159.40;;;153.17;;
3000;SDS011;1510;51.072;6.678;2023-03-12T06:49:56;100.07;;;96.27;;
3000;SDS011;1510;51.072;6.678;2023-03-12T06:52:25;118.30;;;113.73;;
3000;SDS011;1510;51.072;6.678;2023-03-12T06:54:53;123.73;;;119.03;;
3000;SDS011;1510;51.072;6.678;2023-03-12T07:00:12;103.87;;;98.47;;
3000;SDS011;1510;51.072;6.678;2023-03-12T07:02:41;103.47;;;99.37;;
3000;SDS011;1510;51.072;6.678;2023-03-12T07:05:15;96.80;;;93.27;;
3000;SDS011;1510;51.072;6.678;2023-03-12T07:07:46;49.37;;;46.57;;
3000;SDS011;1510;51.072;6.678;2023-03-12T07:10:25;66.00;;;63.50;;
3000;SDS011;1510;51.072;6.678;2023-03-12T07:12:59;68.07;;;65.17;;
3000;SDS011;1510;51.072;6.678;2023-03-12T07:15:55;61.20;;;58.50;;
3000;SDS011;1510;51.072;6.678;2023-03-12T07:21:15;58.40;;;55.87;;
3000;SDS011;1510;51.072;6.678;2023-03-12T07:23:55;35.50;;;33.80;;
3000;SDS011;1510;51.072;6.678;2023-03-12T07:26:33;43.20;;;41.20;;
3000;SDS011;1510;51.072;6.678;2023-03-12T07:29:00;40.30;;;38.10;;
3000;SDS011;1510;51.072;6.678;2023-03-12T07:31:31;36.97;;;34.97;;
3000;SDS011;1510;51.072;6.678;2023-03-12T07:36:57;29.87;;;27.73;;
3000;SDS011;1510;51.072;6.678;2023-03-12T08:01:01;17.17;;;15.87;;
3000;SDS011;1510;51.072;6.678;2023-03-12T08:03:35;18.20;;;16.70;;
3000;SDS011;1510;51.072;6.678;2023-03-12T08:06:33;13.77;;;12.83;;
3000;SDS011;1510;51.072;6.678;2023-03-12T08:19:42;74.32;;;71.22;;
3000;SDS011;1510;51.072;6.678;2023-03-12T08:22:09;62.87;;;59.87;;
3000;SDS011;1510;51.072;6.678;2023-03-12T08:24:36;83.07;;;79.50;;
3000;SDS011;1510;51.072;6.678;2023-03-12T14:33:22;15.37;;;2.63;;
3000;SDS011;1510;51.072;6.678;2023-03-12T14:35:52;11.10;;;3.80;;
3000;SDS011;1510;51.072;6.678;2023-03-12T14:38:24;9.20;;;2.90;;
3000;SDS011;1510;51.072;6.678;2023-03-12T14:40:56;54.90;;;4.43;;
3000;SDS011;1510;51.072;6.678;2023-03-12T14:43:27;20.53;;;4.70;;
3000;SDS011;1510;51.072;6.678;2023-03-12T14:45:56;18.30;;;4.03;;
3000;SDS011;1510;51.072;6.678;2023-03-12T14:48:28;13.07;;;2.40;;
3000;SDS011;1510;51.072;6.678;2023-03-12T14:50:57;21.97;;;3.60;;
3000;SDS011;1510;51.072;6.678;2023-03-12T14:53:25;8.30;;;2.23;;
3000;SDS011;1510;51.072;6.678;2023-03-12T14:56:01;18.87;;;3.33;;
3000;SDS011;1510;51.072;6.678;2023-03-12T14:58:31;16.10;;;2.30;;
3000;SDS011;1510;51.072;6.678;2023-03-12T15:00:59;28.23;;;3.77;;
3000;SDS011;1510;51.072;6.678;2023-03-12T15:03:32;44.00;;;5.43;;
3000;SDS011;1510;51.072;6.678;2023-03-12T15:06:10;12.13;;;3.03;;
3000;SDS011;1510;51.072;6.678;2023-03-12T15:08:39;22.73;;;3.43;;
3000;SDS011;1510;51.072;6.678;2023-03-12T15:11:09;19.47;;;4.00;;
3000;SDS011;1510;51.072;6.678;2023-03-12T15:13:40;22.97;;;3.70;;
3000;SDS011;1510;51.072;6.678;2023-03-12T15:16:07;25.43;;;2.93;;
3000;SDS011;1510;51.072;6.678;2023-03-12T15:18:36;15.93;;;4.43;;
3000;SDS011;1510;51.072;6.678;2023-03-12T15:21:03;17.77;;;4.27;;
3000;SDS011;1510;51.072;6.678;2023-03-12T15:23:31;21.67;;;4.57;;
3000;SDS011;1510;51.072;6.678;2023-03-12T15:26:08;14.93;;;3.53;;
3000;SDS011;1510;51.072;6.678;2023-03-12T15:28:37;9.40;;;3.40;;
3000;SDS011;1510;51.072;6.678;2023-03-12T15:31:06;14.33;;;2.57;;
3000;SDS011;1510;51.072;6.678;2023-03-12T15:33:37;20.97;;;4.73;;
3000;SDS011;1510;51.072;6.678;2023-03-12T15:36:05;18.90;;;3.10;;
3000;SDS011;1510;51.072;6.678;2023-03-12T15:38:48;18.90;;;3.80;;
3000;SDS011;1510;51.072;6.678;2023-03-12T15:41:18;18.87;;;3.60;;
3000;SDS011;1510;51.072;6.678;2023-03-12T15:43:50;15.13;;;2.67;;
3000;SDS011;1510;51.072;6.678;2023-03-12T15:46:19;11.53;;;4.13;;
3000;SDS011;1510;51.072;6.678;2023-03-12T15:48:48;9.47;;;2.50;;
3000;SDS011;1510;51.072;6.678;2023-03-12T15:51:31;25.43;;;3.73;;
3000;SDS011;1510;51.072;6.678;2023-03-12T15:54:03;7.10;;;2.07;;
3000;SDS011;1510;51.072;6.678;2023-03-12T15:56:37;16.27;;;3.03;;
3000;SDS011;1510;51.072;6.678;2023-03-12T15:59:17;23.50;;;2.60;;
3000;SDS011;1510;51.072;6.678;2023-03-12T16:01:49;19.47;;;4.30;;
3000;SDS011;1510;51.072;6.678;2023-03-12T16:04:18;20.53;;;4.63;;
3000;SDS011;1510;51.072;6.678;2023-03-12T16:06:46;15.47;;;3.50;;
3000;SDS011;1510;51.072;6.678;2023-03-12T16:09:15;13.97;;;3.03;;
3000;SDS011;1510;51.072;6.678;2023-03-12T16:11:44;12.93;;;4.83;;
3000;SDS011;1510;51.072;6.678;2023-03-12T16:14:15;5.40;;;2.07;;
3000;SDS011;1510;51.072;6.678;2023-03-12T16:16:51;10.97;;;3.53;;
3000;SDS011;1510;51.072;6.678;2023-03-12T16:19:20;19.60;;;3.83;;
3000;SDS011;1510;51.072;6.678;2023-03-12T16:21:48;16.83;;;3.33;;
3000;SDS011;1510;51.072;6.678;2023-03-12T16:24:15;26.97;;;3.33;;
3000;SDS011;1510;51.072;6.678;2023-03-12T16:26:44;21.07;;;3.93;;
3000;SDS011;1510;51.072;6.678;2023-03-12T16:29:15;22.90;;;6.60;;
3000;SDS011;1510;51.072;6.678;2023-03-12T16:31:43;20.73;;;2.97;;
3000;SDS011;1510;51.072;6.678;2023-03-12T16:34:10;18.93;;;3.40;;
3000;SDS011;1510;51.072;6.678;2023-03-12T16:36:39;29.03;;;5.57;;
3000;SDS011;1510;51.072;6.678;2023-03-12T16:39:05;14.93;;;2.70;;
3000;SDS011;1510;51.072;6.678;2023-03-12T16:41:32;22.77;;;4.13;;
3000;SDS011;1510;51.072;6.678;2023-03-12T16:43:59;20.83;;;3.23;;
3000;SDS011;1510;51.072;6.678;2023-03-12T16:46:28;29.83;;;4.33;;
3000;SDS011;1510;51.072;6.678;2023-03-12T16:48:56;9.57;;;3.10;;
3000;SDS011;1510;51.072;6.678;2023-03-12T16:51:23;15.30;;;4.13;;
3000;SDS011;1510;51.072;6.678;2023-03-12T16:53:53;17.53;;;3.20;;
3000;SDS011;1510;51.072;6.678;2023-03-12T16:56:23;28.60;;;4.43;;
3000;SDS011;1510;51.072;6.678;2023-03-12T16:58:53;13.00;;;3.77;;
3000;SDS011;1510;51.072;6.678;2023-03-12T17:01:22;31.07;;;4.50;;
3000;SDS011;1510;51.072;6.678;2023-03-12T17:03:53;17.37;;;3.50;;
3000;SDS011;1510;51.072;6.678;2023-03-12T17:06:20;21.23;;;3.03;;
3000;SDS011;1510;51.072;6.678;2023-03-12T17:08:48;41.60;;;4.40;;
3000;SDS011;1510;51.072;6.678;2023-03-12T17:11:17;17.13;;;3.53;;
3000;SDS011;1510;51.072;6.678;2023-03-12T17:13:47;24.63;;;4.10;;
3000;SDS011;1510;51.072;6.678;2023-03-12T17:16:17;13.97;;;3.10;;
3000;SDS011;1510;51.072;6.678;2023-03-12T17:18:44;19.93;;;3.33;;
3000;SDS011;1510;51.072;6.678;2023-03-12T17:21:15;23.50;;;4.03;;
3000;SDS011;1510;51.072;6.678;2023-03-12T17:23:42;23.87;;;3.60;;
3000;SDS011;1510;51.072;6.678;2023-03-12T17:26:14;23.47;;;4.43;;
3000;SDS011;1510;51.072;6.678;2023-03-12T17:28:42;23.87;;;4.10;;
3000;SDS011;1510;51.072;6.678;2023-03-12T17:31:09;22.53;;;4.60;;
3000;SDS011;1510;51.072;6.678;2023-03-12T17:33:36;29.07;;;4.40;;
3000;SDS011;1510;51.072;6.678;2023-03-12T17:36:05;29.87;;;6.53;;
3000;SDS011;1510;51.072;6.678;2023-03-12T17:38:33;31.83;;;6.10;;
3000;SDS011;1510;51.072;6.678;2023-03-12T17:41:01;31.20;;;6.87;;
3000;SDS011;1510;51.072;6.678;2023-03-12T17:43:30;26.50;;;6.00;;
3000;SDS011;1510;51.072;6.678;2023-03-12T17:46:03;28.00;;;6.80;;
3000;SDS011;1510;51.072;6.678;2023-03-12T17:48:34;20.17;;;5.23;;
3000;SDS011;1510;51.072;6.678;2023-03-12T17:51:03;22.07;;;6.50;;
3000;SDS011;1510;51.072;6.678;2023-03-12T17:53:35;20.70;;;6.10;;
3000;SDS011;1510;51.072;6.678;2023-03-12T17:56:03;23.00;;;4.90;;
3000;SDS011;1510;51.072;6.678;2023-03-12T17:58:30;20.23;;;4.70;;
3000;SDS011;1510;51.072;6.678;2023-03-12T18:00:57;21.80;;;5.00;;
3000;SDS011;1510;51.072;6.678;2023-03-12T18:03:26;19.57;;;4.80;;
3000;SDS011;1510;51.072;6.678;2023-03-12T18:05:52;21.10;;;5.27;;
3000;SDS011;1510;51.072;6.678;2023-03-12T18:08:20;26.03;;;4.87;;
3000;SDS011;1510;51.072;6.678;2023-03-12T18:10:47;26.87;;;5.07;;
3000;SDS011;1510;51.072;6.678;2023-03-12T18:13:14;23.70;;;4.23;;
3000;SDS011;1510;51.072;6.678;2023-03-12T18:15:41;26.53;;;5.17;;
3000;SDS011;1510;51.072;6.678;2023-03-12T18:18:08;21.50;;;5.50;;
3000;SDS011;1510;51.072;6.678;2023-03-12T18:20:37;19.50;;;4.77;;
3000;SDS011;1510;51.072;6.678;2023-03-12T18:23:04;15.70;;;3.77;;
3000;SDS011;1510;51.072;6.678;2023-03-12T18:25:31;28.80;;;4.67;;
3000;SDS011;1510;51.072;6.678;2023-03-12T18:27:57;19.53;;;4.17;;
3000;SDS011;1510;51.072;6.678;2023-03-12T18:30:24;26.90;;;4.70;;
3000;SDS011;1510;51.072;6.678;2023-03-12T18:32:52;23.53;;;4.40;;
3000;SDS011;1510;51.072;6.678;2023-03-12T18:35:19;16.97;;;4.20;;
3000;SDS011;1510;51.072;6.678;2023-03-12T18:37:54;28.63;;;5.40;;
3000;SDS011;1510;51.072;6.678;2023-03-12T18:40:20;20.67;;;4.87;;
3000;SDS011;1510;51.072;6.678;2023-03-12T18:42:47;20.23;;;5.00;;
3000;SDS011;1510;51.072;6.678;2023-03-12T18:45:14;23.57;;;5.47;;
3000;SDS011;1510;51.072;6.678;2023-03-12T18:47:41;17.67;;;4.63;;
3000;SDS011;1510;51.072;6.678;2023-03-12T18:50:09;21.60;;;4.33;;
3000;SDS011;1510;51.072;6.678;2023-03-12T18:52:38;23.03;;;5.70;;
3000;SDS011;1510;51.072;6.678;2023-03-12T18:55:07;21.63;;;5.80;;
3000;SDS011;1510;51.072;6.678;2023-03-12T18:57:39;19.20;;;4.23;;
3000;SDS011;1510;51.072;6.678;2023-03-12T19:00:06;26.10;;;5.30;;
3000;SDS011;1510;51.072;6.678;2023-03-12T19:02:37;16.30;;;5.50;;
3000;SDS011;1510;51.072;6.678;2023-03-12T19:05:04;17.13;;;4.67;;
3000;SDS011;1510;51.072;6.678;2023-03-12T19:07:31;27.43;;;5.33;;
3000;SDS011;1510;51.072;6.678;2023-03-12T19:09:58;19.97;;;5.57;;
3000;SDS011;1510;51.072;6.678;2023-03-12T19:12:27;27.23;;;5.73;;
3000;SDS011;1510;51.072;6.678;2023-03-12T19:14:54;29.63;;;5.23;;
3000;SDS011;1510;51.072;6.678;2023-03-12T19:17:20;30.33;;;6.60;;
3000;SDS011;1510;51.072;6.678;2023-03-12T19:19:48;24.53;;;5.20;;
3000;SDS011;1510;51.072;6.678;2023-03-12T19:22:15;18.77;;;5.57;;
3000;SDS011;1510;51.072;6.678;2023-03-12T19:24:42;25.40;;;4.70;;
3000;SDS011;1510;51.072;6.678;2023-03-12T19:27:09;28.93;;;4.77;;
3000;SDS011;1510;51.072;6.678;2023-03-12T19:29:37;20.37;;;4.60;;
3000;SDS011;1510;51.072;6.678;2023-03-12T19:32:05;21.20;;;5.30;;
3000;SDS011;1510;51.072;6.678;2023-03-12T19:34:31;29.70;;;5.70;;
3000;SDS011;1510;51.072;6.678;2023-03-12T19:36:59;11.57;;;4.73;;
3000;SDS011;1510;51.072;6.678;2023-03-12T19:39:26;19.57;;;4.90;;
3000;SDS011;1510;51.072;6.678;2023-03-12T19:41:53;18.97;;;4.17;;
3000;SDS011;1510;51.072;6.678;2023-03-12T19:44:23;24.47;;;5.30;;
3000;SDS011;1510;51.072;6.678;2023-03-12T19:46:51;17.03;;;4.90;;
3000;SDS011;1510;51.072;6.678;2023-03-12T19:49:18;17.27;;;4.67;;
3000;SDS011;1510;51.072;6.678;2023-03-12T19:51:45;31.73;;;4.47;;
3000;SDS011;1510;51.072;6.678;2023-03-12T19:54:12;23.57;;;4.87;;
3000;SDS011;1510;51.072;6.678;2023-03-12T19:56:39;17.83;;;4.80;;
3000;SDS011;1510;51.072;6.678;2023-03-12T19:59:06;19.97;;;4.57;;
3000;SDS011;1510;51.072;6.678;2023-03-12T20:01:33;14.63;;;4.30;;
3000;SDS011;1510;51.072;6.678;2023-03-12T20:04:01;21.20;;;4.73;;
3000;SDS011;1510;51.072;6.678;2023-03-12T20:06:31;24.57;;;4.80;;
3000;SDS011;1510;51.072;6.678;2023-03-12T20:08:58;29.67;;;5.00;;
3000;SDS011;1510;51.072;6.678;2023-03-12T20:11:25;19.03;;;4.70;;
3000;SDS011;1510;51.072;6.678;2023-03-12T20:13:52;24.73;;;5.10;;
3000;SDS011;1510;51.072;6.678;2023-03-12T20:16:19;22.87;;;5.13;;
3000;SDS011;1510;51.072;6.678;2023-03-12T20:18:46;11.33;;;4.23;;
3000;SDS011;1510;51.072;6.678;2023-03-12T20:21:14;17.87;;;4.03;;
3000;SDS011;1510;51.072;6.678;2023-03-12T20:23:42;16.77;;;4.23;;
3000;SDS011;1510;51.072;6.678;2023-03-12T20:26:09;26.97;;;6.00;;
3000;SDS011;1510;51.072;6.678;2023-03-12T20:28:36;21.60;;;4.30;;
3000;SDS011;1510;51.072;6.678;2023-03-12T20:31:07;33.90;;;5.73;;
3000;SDS011;1510;51.072;6.678;2023-03-12T20:54:10;18.63;;;3.93;;
3000;SDS011;1510;51.072;6.678;2023-03-12T20:56:52;23.57;;;4.40;;
3000;SDS011;1510;51.072;6.678;2023-03-12T20:59:28;24.60;;;4.80;;
3000;SDS011;1510;51.072;6.678;2023-03-12T21:01:55;14.40;;;4.27;;
3000;SDS011;1510;51.072;6.678;2023-03-12T21:04:22;21.50;;;5.00;;
3000;SDS011;1510;51.072;6.678;2023-03-12T21:06:50;17.37;;;4.10;;
3000;SDS011;1510;51.072;6.678;2023-03-12T21:09:22;19.93;;;4.17;;
3000;SDS011;1510;51.072;6.678;2023-03-12T21:11:49;29.17;;;5.50;;
3000;SDS011;1510;51.072;6.678;2023-03-12T21:14:16;16.27;;;4.23;;
3000;SDS011;1510;51.072;6.678;2023-03-12T21:16:44;17.20;;;4.23;;
3000;SDS011;1510;51.072;6.678;2023-03-12T21:19:14;28.20;;;6.03;;
3000;SDS011;1510;51.072;6.678;2023-03-12T21:21:41;17.03;;;4.03;;
3000;SDS011;1510;51.072;6.678;2023-03-12T21:24:11;19.60;;;4.50;;
3000;SDS011;1510;51.072;6.678;2023-03-12T21:26:38;22.23;;;4.63;;
3000;SDS011;1510;51.072;6.678;2023-03-12T21:29:05;21.23;;;4.63;;
3000;SDS011;1510;51.072;6.678;2023-03-12T21:31:36;23.27;;;4.00;;
3000;SDS011;1510;51.072;6.678;2023-03-12T21:34:03;28.20;;;4.60;;
3000;SDS011;1510;51.072;6.678;2023-03-12T21:36:31;18.67;;;3.10;;
3000;SDS011;1510;51.072;6.678;2023-03-12T21:38:59;24.70;;;4.80;;
3000;SDS011;1510;51.072;6.678;2023-03-12T21:41:30;17.40;;;3.60;;
3000;SDS011;1510;51.072;6.678;2023-03-12T21:43:59;14.80;;;5.23;;
3000;SDS011;1510;51.072;6.678;2023-03-12T21:46:26;21.17;;;4.13;;
3000;SDS011;1510;51.072;6.678;2023-03-12T21:48:54;16.80;;;4.33;;
3000;SDS011;1510;51.072;6.678;2023-03-12T21:51:22;17.00;;;3.93;;
3000;SDS011;1510;51.072;6.678;2023-03-12T21:53:53;15.80;;;3.83;;
3000;SDS011;1510;51.072;6.678;2023-03-12T21:56:20;25.30;;;4.30;;
3000;SDS011;1510;51.072;6.678;2023-03-12T21:58:50;17.20;;;4.37;;
3000;SDS011;1510;51.072;6.678;2023-03-12T22:01:20;17.00;;;4.17;;
3000;SDS011;1510;51.072;6.678;2023-03-12T22:03:50;13.40;;;4.23;;
3000;SDS011;1510;51.072;6.678;2023-03-12T22:06:17;20.07;;;4.00;;
3000;SDS011;1510;51.072;6.678;2023-03-12T22:08:48;25.33;;;5.80;;
3000;SDS011;1510;51.072;6.678;2023-03-12T22:11:20;23.30;;;4.40;;
3000;SDS011;1510;51.072;6.678;2023-03-12T22:13:53;17.23;;;4.40;;
3000;SDS011;1510;51.072;6.678;2023-03-12T22:16:20;21.77;;;4.47;;
3000;SDS011;1510;51.072;6.678;2023-03-12T22:18:49;30.00;;;4.40;;
3000;SDS011;1510;51.072;6.678;2023-03-12T22:21:16;20.13;;;3.40;;
3000;SDS011;1510;51.072;6.678;2023-03-12T22:23:44;15.13;;;4.17;;
3000;SDS011;1510;51.072;6.678;2023-03-12T22:26:16;15.03;;;3.50;;
3000;SDS011;1510;51.072;6.678;2023-03-12T22:28:46;17.97;;;3.40;;
3000;SDS011;1510;51.072;6.678;2023-03-12T22:31:19;19.03;;;3.57;;
3000;SDS011;1510;51.072;6.678;2023-03-12T22:33:48;16.57;;;3.73;;
3000;SDS011;1510;51.072;6.678;2023-03-12T22:36:16;11.57;;;3.30;;
3000;SDS011;1510;51.072;6.678;2023-03-12T22:38:44;8.37;;;2.60;;
3000;SDS011;1510;51.072;6.678;2023-03-12T22:41:13;14.03;;;3.63;;
3000;SDS011;1510;51.072;6.678;2023-03-12T22:43:41;14.20;;;3.50;;
3000;SDS011;1510;51.072;6.678;2023-03-12T22:46:08;16.77;;;3.07;;
3000;SDS011;1510;51.072;6.678;2023-03-12T22:48:38;15.83;;;4.20;;